Biggs Field, Texas
Current Conditions -  °F | °C
As of 1:58 AM on Saturday 29 Nov 2014 (Local Time) from KBIF Reporting Station
Clear Clear  
Wind Chill: 38°   Ceiling: Unl
Heat Index: 38°   Visibility: 10mi
Dew Point: 16°   Wind: 1mph
Humidity: 40%   Direction: 350°N
Pressure: 30.05"   Gusts: NA
Location:  31.8457°N, 106.377°W
Report Text: KBIF 290858Z AUTO 35001KT 10SM CLR 04/M09 A3005 RMK AO2 LTG DSNT S SLP147 T00361088 55007 $
Loading
Personal Weather Stations






























Interactive Weather Map New forecast layout! Learn more

10-Day Weather Forecast

Advertisements
Track Severe Weather on mobile